createdAt,value
2019-03-05T00:01:09.061Z,95036.58
2019-03-05T00:03:39.178Z,95040.20
2019-03-05T00:06:09.378Z,95034.39
2019-03-05T00:08:39.385Z,95034.46
2019-03-05T00:11:09.510Z,95027.22
2019-03-05T00:13:39.709Z,95031.91
2019-03-05T00:16:09.901Z,95044.62
2019-03-05T00:18:39.917Z,95037.05
2019-03-05T00:21:09.946Z,95039.59
2019-03-05T00:24:11.857Z,95048.50
2019-03-05T00:26:42.058Z,95046.45
2019-03-05T00:29:58.937Z,95043.84
2019-03-05T00:32:28.957Z,95048.13
2019-03-05T00:36:00.678Z,95045.00
2019-03-05T00:39:11.987Z,95049.64
2019-03-05T00:42:05.780Z,95056.88
2019-03-05T00:45:11.135Z,95053.67
2019-03-05T00:48:18.220Z,95059.89
2019-03-05T00:51:24.543Z,95050.22
2019-03-05T00:54:20.661Z,95047.08
2019-03-05T00:57:08.016Z,95041.46
2019-03-05T01:00:04.011Z,95040.25
2019-03-05T01:03:00.277Z,95035.95
2019-03-05T01:06:06.499Z,95043.27
2019-03-05T01:08:36.622Z,95036.25
2019-03-05T01:11:06.994Z,95055.12
2019-03-05T01:13:37.440Z,95057.58
2019-03-05T01:16:08.021Z,95030.80
2019-03-05T01:18:38.068Z,95033.73
2019-03-05T01:21:08.272Z,95040.20
2019-03-05T01:23:38.467Z,95027.81
2019-03-05T01:26:08.578Z,95023.52
2019-03-05T01:28:38.703Z,95019.80
2019-03-05T01:31:18.373Z,95013.45
2019-03-05T01:33:59.744Z,95007.83
2019-03-05T01:36:32.362Z,95000.48
2019-03-05T01:39:30.752Z,95009.47
2019-03-05T01:42:01.077Z,95010.73
2019-03-05T01:44:31.195Z,95020.17
2019-03-05T01:47:01.404Z,94802.78
2019-03-05T01:49:31.605Z,95014.48
2019-03-05T01:52:01.610Z,95008.88
2019-03-05T01:54:31.631Z,95021.28
2019-03-05T01:57:01.827Z,95027.83
2019-03-05T01:59:32.018Z,95033.34
2019-03-05T02:02:02.117Z,95029.40
2019-03-05T02:04:32.237Z,95028.28
2019-03-05T02:07:02.431Z,95019.89
2019-03-05T02:09:32.620Z,95012.89
2019-03-05T02:12:02.833Z,95019.64
2019-03-05T02:14:33.024Z,95015.05
2019-03-05T02:17:03.131Z,95013.11
2019-03-05T02:19:50.230Z,95019.81
2019-03-05T02:22:32.975Z,95029.55
2019-03-05T02:25:31.848Z,95038.23
2019-03-05T02:28:39.866Z,95033.67
2019-03-05T02:31:45.539Z,95024.87
2019-03-05T02:34:49.782Z,95034.57
2019-03-05T02:37:48.483Z,95039.69
2019-03-05T02:40:41.155Z,95036.69
2019-03-05T02:43:34.379Z,95041.25
2019-03-05T02:46:50.435Z,95048.96
2019-03-05T02:49:42.093Z,95033.77
2019-03-05T02:52:51.492Z,95024.25
2019-03-05T02:55:47.086Z,95019.68
2019-03-05T02:58:14.920Z,95024.03
2019-03-05T03:01:01.324Z,95033.77
2019-03-05T03:03:35.597Z,95031.05
2019-03-05T03:06:27.717Z,95017.73
2019-03-05T03:09:44.203Z,95008.97
2019-03-05T03:12:14.119Z,95019.51
2019-03-05T03:14:44.331Z,94809.44
2019-03-05T03:17:14.516Z,95048.80
2019-03-05T03:19:44.614Z,95042.36
2019-03-05T03:22:14.623Z,95046.50
2019-03-05T03:24:44.845Z,95059.36
2019-03-05T03:27:15.028Z,95045.85
2019-03-05T03:29:45.027Z,95042.94
2019-03-05T03:32:15.070Z,95037.86
2019-03-05T03:34:45.309Z,95032.66
2019-03-05T03:37:15.557Z,95032.47
2019-03-05T03:39:45.474Z,95029.13
2019-03-05T03:42:15.759Z,95035.41
2019-03-05T03:44:45.963Z,95049.48
2019-03-05T03:47:15.983Z,95040.52
2019-03-05T03:49:46.186Z,95050.20
2019-03-05T03:52:16.383Z,95048.64
2019-03-05T03:54:46.584Z,95052.73
2019-03-05T03:57:16.647Z,95055.63
2019-03-05T03:59:46.863Z,95056.89
2019-03-05T04:02:17.122Z,95060.91
2019-03-05T04:04:47.128Z,95061.59
2019-03-05T04:07:17.230Z,95047.27
2019-03-05T04:09:47.461Z,95052.01
2019-03-05T04:12:17.643Z,95063.18
2019-03-05T04:14:47.749Z,95060.59
2019-03-05T04:17:17.868Z,95070.63
2019-03-05T04:19:48.060Z,95078.56
2019-03-05T04:22:18.185Z,95078.44
2019-03-05T04:24:48.375Z,95065.29
2019-03-05T04:27:18.565Z,95073.73
2019-03-05T04:29:48.566Z,95067.28
2019-03-05T04:32:18.477Z,95064.45
2019-03-05T04:34:48.673Z,95077.92
2019-03-05T04:37:18.863Z,95073.92
2019-03-05T04:39:48.771Z,95075.44
2019-03-05T04:42:18.789Z,95081.12
2019-03-05T04:44:57.682Z,95077.47
2019-03-05T04:47:28.046Z,95075.25
2019-03-05T04:50:06.666Z,95069.64
2019-03-05T04:52:37.972Z,95061.73
2019-03-05T04:55:08.919Z,95069.97
2019-03-05T04:57:39.211Z,95068.99
2019-03-05T05:00:12.790Z,95062.34
2019-03-05T05:02:42.977Z,95075.68
2019-03-05T05:05:13.086Z,95084.34
2019-03-05T05:07:42.994Z,95088.75
2019-03-05T05:10:13.281Z,95079.17
2019-03-05T05:12:43.475Z,95083.25
2019-03-05T05:15:44.751Z,95089.90
2019-03-05T05:18:14.777Z,95086.41
2019-03-05T05:20:45.021Z,95094.93
2019-03-05T05:23:15.240Z,95090.34
2019-03-05T05:25:45.266Z,95080.77
2019-03-05T05:28:15.175Z,95069.95
2019-03-05T05:30:45.496Z,95075.92
2019-03-05T05:33:15.723Z,95072.83
2019-03-05T05:35:45.704Z,95073.08
2019-03-05T05:38:15.815Z,95080.49
2019-03-05T05:40:47.061Z,95074.86
2019-03-05T05:43:22.893Z,95082.64
2019-03-05T05:45:53.557Z,95094.05
2019-03-05T05:48:23.767Z,95094.95
2019-03-05T05:50:53.769Z,95107.48
2019-03-05T05:53:23.888Z,95099.77
2019-03-05T05:55:54.080Z,95113.39
2019-03-05T05:58:24.285Z,95122.87
2019-03-05T06:00:56.708Z,95130.16
2019-03-05T06:03:26.739Z,95133.08
2019-03-05T06:05:57.146Z,95137.30
2019-03-05T06:08:27.339Z,95136.78
2019-03-05T06:10:57.455Z,95133.20
2019-03-05T06:13:27.525Z,95132.54
2019-03-05T06:15:57.778Z,95132.34
2019-03-05T06:18:27.981Z,95130.22
2019-03-05T06:20:57.886Z,95140.19
2019-03-05T06:23:27.812Z,95132.63
2019-03-05T06:25:58.009Z,95131.45
2019-03-05T06:28:28.228Z,95136.98
2019-03-05T06:30:58.122Z,95136.09
2019-03-05T06:33:28.191Z,95136.83
2019-03-05T06:35:58.658Z,95146.66
2019-03-05T06:38:29.084Z,95143.32
2019-03-05T06:40:58.994Z,95137.57
2019-03-05T06:43:28.903Z,95128.63
2019-03-05T06:45:59.443Z,95129.59
2019-03-05T06:48:29.876Z,95124.71
2019-03-05T06:50:59.790Z,95115.78
2019-03-05T06:53:29.793Z,95123.97
2019-03-05T06:56:00.001Z,95108.36
2019-03-05T06:58:30.192Z,95095.50
2019-03-05T07:01:00.293Z,95095.50
2019-03-05T07:03:30.530Z,95099.19
2019-03-05T07:06:36.019Z,95108.48
2019-03-05T07:09:15.154Z,95110.66
2019-03-05T07:12:13.187Z,95106.41
2019-03-05T07:15:48.190Z,95112.15
2019-03-05T07:18:31.823Z,95107.22
2019-03-05T07:21:26.027Z,95107.02
2019-03-05T07:24:38.395Z,95113.66
2019-03-05T07:27:09.594Z,95124.81
2019-03-05T07:29:39.787Z,95129.09
2019-03-05T07:32:09.904Z,95117.38
2019-03-05T07:34:42.575Z,95119.75
2019-03-05T07:37:13.957Z,95104.08
2019-03-05T07:39:43.960Z,95118.42
2019-03-05T07:42:13.980Z,95109.45
2019-03-05T07:44:44.394Z,95103.02
2019-03-05T07:47:14.539Z,95096.11
2019-03-05T07:49:44.833Z,95090.38
2019-03-05T07:52:15.047Z,95078.44
2019-03-05T07:54:44.947Z,95085.37
2019-03-05T07:57:14.917Z,95069.19
2019-03-05T07:59:45.113Z,95075.80
2019-03-05T08:02:15.300Z,95079.77
2019-03-05T08:04:45.225Z,95084.20
2019-03-05T08:07:15.230Z,95083.88
2019-03-05T08:09:45.438Z,95078.78
2019-03-05T08:12:53.196Z,95079.70
2019-03-05T08:16:01.728Z,95073.45
2019-03-05T08:18:22.556Z,95065.11
2019-03-05T08:20:52.800Z,95069.50
2019-03-05T08:23:22.993Z,95062.56
2019-03-05T08:25:52.912Z,95056.78
2019-03-05T08:28:23.102Z,95057.48
2019-03-05T08:30:53.093Z,95053.00
2019-03-05T08:33:23.005Z,95055.59
2019-03-05T08:35:53.210Z,95064.52
2019-03-05T08:38:23.385Z,95061.87
2019-03-05T08:40:53.503Z,95044.86
2019-03-05T08:43:23.612Z,95040.70
2019-03-05T08:45:53.989Z,95041.39
2019-03-05T08:48:24.205Z,95042.41
2019-03-05T08:50:54.197Z,95043.92
2019-03-05T08:53:24.432Z,95042.41
2019-03-05T08:55:54.669Z,95039.66
2019-03-05T08:58:24.870Z,95045.98
2019-03-05T09:00:54.982Z,95045.16
2019-03-05T09:03:24.995Z,95038.98
2019-03-05T09:05:55.185Z,95038.97
2019-03-05T09:08:25.307Z,95037.91
2019-03-05T09:10:56.107Z,95038.92
2019-03-05T09:13:32.730Z,95038.89
2019-03-05T09:15:58.124Z,95027.56
2019-03-05T09:18:28.027Z,95022.41
2019-03-05T09:20:58.240Z,95021.64
2019-03-05T09:23:28.420Z,95016.14
2019-03-05T09:25:58.430Z,95012.39
2019-03-05T09:28:28.440Z,95005.91
2019-03-05T09:30:58.645Z,95008.61
2019-03-05T09:33:28.827Z,95017.89
2019-03-05T09:35:58.826Z,95014.73
2019-03-05T09:38:28.847Z,95009.64
2019-03-05T09:40:59.082Z,95008.06
2019-03-05T09:43:29.267Z,95005.45
2019-03-05T09:45:59.786Z,95009.73
2019-03-05T09:48:30.252Z,95005.66
2019-03-05T09:51:00.263Z,95002.38
2019-03-05T09:53:30.372Z,95004.22
2019-03-05T09:56:00.746Z,95002.09
2019-03-05T09:58:31.004Z,94987.25
2019-03-05T10:01:00.946Z,94994.21
2019-03-05T10:03:31.076Z,94990.78
2019-03-05T10:06:01.293Z,94987.81
2019-03-05T10:08:32.661Z,94981.62
2019-03-05T10:11:03.064Z,94972.91
2019-03-05T10:13:33.084Z,94970.73
2019-03-05T10:16:03.379Z,94966.34
2019-03-05T10:21:32.856Z,94973.21
2019-03-05T10:24:10.408Z,94952.76
2019-03-05T10:26:35.206Z,94944.72
2019-03-05T10:29:07.576Z,94941.33
2019-03-05T10:31:37.790Z,94938.92
2019-03-05T10:34:09.458Z,94939.03
2019-03-05T10:36:39.566Z,94931.78
2019-03-05T10:39:30.685Z,94935.16
2019-03-05T10:41:56.246Z,94927.75
2019-03-05T10:44:26.452Z,94915.39
2019-03-05T10:46:56.553Z,94910.11
2019-03-05T10:49:26.858Z,94908.73
2019-03-05T10:51:58.807Z,94905.26
2019-03-05T10:54:29.143Z,94902.92
2019-03-05T10:56:59.283Z,94896.02
2019-03-05T10:59:29.310Z,94885.88
2019-03-05T11:01:59.585Z,94875.67
2019-03-05T11:04:29.774Z,94889.66
2019-03-05T11:06:59.962Z,94880.58
2019-03-05T11:09:30.150Z,94873.17
2019-03-05T11:12:00.774Z,94870.13
2019-03-05T11:14:31.318Z,94875.39
2019-03-05T11:17:01.514Z,94865.45
2019-03-05T11:19:31.699Z,94864.36
2019-03-05T11:22:02.400Z,94867.61
2019-03-05T11:24:32.949Z,94850.31
2019-03-05T11:27:03.417Z,94853.67
2019-03-05T11:29:34.036Z,94853.52
2019-03-05T11:32:04.468Z,94852.61
2019-03-05T11:34:35.028Z,94841.66
2019-03-05T11:37:05.552Z,94841.87
2019-03-05T11:39:35.952Z,94832.00
2019-03-05T11:42:06.292Z,94835.61
2019-03-05T11:44:36.787Z,94827.51
2019-03-05T11:47:07.040Z,94828.91
2019-03-05T11:49:37.231Z,94816.00
2019-03-05T11:52:07.385Z,94811.91
2019-03-05T11:54:37.408Z,94813.08
2019-03-05T11:57:07.629Z,94811.40
2019-03-05T11:59:37.815Z,94810.02
2019-03-05T12:02:09.810Z,94804.02
2019-03-05T12:04:39.973Z,94799.10
2019-03-05T12:07:10.170Z,94803.53
2019-03-05T12:09:40.364Z,94800.34
2019-03-05T12:12:10.383Z,94797.02
2019-03-05T12:14:40.402Z,94793.97
2019-03-05T12:17:10.599Z,94793.15
2019-03-05T12:19:40.894Z,94791.73
2019-03-05T12:22:11.140Z,94783.52
2019-03-05T12:24:41.333Z,94780.72
2019-03-05T12:27:11.491Z,94780.06
2019-03-05T12:29:41.507Z,94768.79
2019-03-05T12:32:11.708Z,94767.20
2019-03-05T12:34:41.906Z,94761.09
2019-03-05T12:37:11.921Z,94759.99
2019-03-05T12:39:42.578Z,94756.72
2019-03-05T12:42:12.772Z,94755.58
2019-03-05T12:44:42.976Z,94754.54
2019-03-05T12:47:13.071Z,94751.68
2019-03-05T12:49:42.981Z,94755.95
2019-03-05T12:52:13.492Z,94753.80
2019-03-05T12:54:43.691Z,94758.30
2019-03-05T12:57:13.867Z,94756.36
2019-03-05T12:59:43.966Z,94751.67
2019-03-05T13:02:14.239Z,94752.98
2019-03-05T13:04:44.434Z,94745.60
2019-03-05T13:07:17.774Z,94743.73
2019-03-05T13:09:46.363Z,94737.85
2019-03-05T13:12:16.385Z,94740.86
2019-03-05T13:14:46.377Z,94743.21
2019-03-05T13:17:16.645Z,94744.64
2019-03-05T13:19:47.942Z,94740.41
2019-03-05T13:22:19.035Z,94741.39
2019-03-05T13:24:50.308Z,94744.78
2019-03-05T13:27:22.809Z,94736.50
2019-03-05T13:29:53.212Z,94743.13
2019-03-05T13:32:23.103Z,94743.36
2019-03-05T13:34:53.107Z,94739.81
2019-03-05T13:37:24.876Z,94734.31
2019-03-05T13:39:58.144Z,94737.48
2019-03-05T13:42:29.109Z,94741.91
2019-03-05T13:44:58.619Z,94740.94
2019-03-05T13:47:28.815Z,94751.81
2019-03-05T13:50:45.431Z,94746.42
2019-03-05T13:53:35.327Z,94748.52
2019-03-05T13:56:51.819Z,94743.34
2019-03-05T13:59:43.980Z,94743.78
2019-03-05T14:02:16.344Z,94754.05
2019-03-05T14:04:55.808Z,94755.98
2019-03-05T14:07:59.928Z,94750.09
2019-03-05T14:10:30.035Z,94749.60
2019-03-05T14:13:00.127Z,94753.50
2019-03-05T14:15:30.601Z,94750.61
2019-03-05T14:18:00.969Z,94754.02
2019-03-05T14:20:34.980Z,94752.16
2019-03-05T14:23:04.087Z,94756.55
2019-03-05T14:25:34.444Z,94753.98
2019-03-05T14:28:04.629Z,94762.20
2019-03-05T14:30:35.663Z,94765.30
2019-03-05T14:33:06.373Z,94768.17
2019-03-05T14:35:36.719Z,94770.60
2019-03-05T14:38:06.936Z,94757.16
2019-03-05T14:40:37.997Z,94758.11
2019-03-05T14:43:08.550Z,94764.64
2019-03-05T14:45:39.123Z,94773.36
2019-03-05T14:48:09.166Z,94779.22
2019-03-05T14:50:39.624Z,94785.75
2019-03-05T14:53:09.831Z,94779.79
2019-03-05T14:55:39.937Z,94786.84
2019-03-05T14:58:10.043Z,94775.44
2019-03-05T15:00:40.700Z,94791.05
2019-03-05T15:03:10.949Z,94792.73
2019-03-05T15:05:41.452Z,94790.82
2019-03-05T15:08:11.559Z,94795.75
2019-03-05T15:10:41.880Z,94801.80
2019-03-05T15:13:15.766Z,94797.95
2019-03-05T15:15:43.703Z,94793.55
2019-03-05T15:18:13.989Z,94800.30
2019-03-05T15:20:43.989Z,94799.30
2019-03-05T15:23:14.448Z,94803.17
2019-03-05T15:25:44.850Z,94813.73
2019-03-05T15:28:15.019Z,94800.73
2019-03-05T15:30:45.250Z,94802.37
2019-03-05T15:33:15.314Z,94804.81
2019-03-05T15:35:45.536Z,94801.44
2019-03-05T15:38:15.877Z,94794.67
2019-03-05T15:40:45.957Z,94802.46
2019-03-05T15:43:15.967Z,94801.20
2019-03-05T15:45:46.236Z,94803.93
2019-03-05T15:48:16.490Z,94818.05
2019-03-05T15:50:46.561Z,94820.78
2019-03-05T15:53:16.807Z,94819.58
2019-03-05T15:55:46.815Z,94833.75
2019-03-05T15:58:17.049Z,94824.97
2019-03-05T16:00:47.237Z,94839.13
2019-03-05T16:03:17.442Z,94817.55
2019-03-05T16:05:47.569Z,94821.80
2019-03-05T16:08:20.981Z,94807.12
2019-03-05T16:10:50.460Z,94802.27
2019-03-05T16:13:21.467Z,94799.50
2019-03-05T16:15:51.578Z,94792.65
2019-03-05T16:18:21.598Z,94799.23
2019-03-05T16:20:51.827Z,94813.59
2019-03-05T16:23:22.277Z,94831.63
2019-03-05T16:25:52.703Z,94847.94
2019-03-05T16:28:23.148Z,94859.33
2019-03-05T16:31:21.944Z,94878.87
2019-03-05T16:34:13.010Z,94884.61
2019-03-05T16:37:02.084Z,94885.53
2019-03-05T16:39:41.280Z,94898.14
2019-03-05T16:42:32.239Z,94912.07
2019-03-05T16:45:20.496Z,94915.86
2019-03-05T16:48:15.556Z,94914.66
2019-03-05T16:51:07.546Z,94936.38
2019-03-05T16:53:52.795Z,94949.52
2019-03-05T16:56:41.755Z,94946.71
2019-03-05T16:59:34.011Z,94935.97
2019-03-05T17:02:26.187Z,94948.29
2019-03-05T17:05:24.076Z,94958.80
2019-03-05T17:08:02.884Z,94961.33
2019-03-05T17:10:51.044Z,94965.04
2019-03-05T17:13:21.276Z,94964.88
2019-03-05T17:15:51.353Z,94979.84
2019-03-05T17:18:21.489Z,94999.48
2019-03-05T17:20:51.696Z,94996.86
2019-03-05T17:23:22.144Z,94999.63
2019-03-05T17:25:52.428Z,95002.52
2019-03-05T17:28:22.560Z,95010.84
2019-03-05T17:30:52.783Z,95015.00
2019-03-05T17:33:22.994Z,95015.07
2019-03-05T17:35:53.120Z,95018.02
2019-03-05T17:38:23.258Z,95015.80
2019-03-05T17:40:53.465Z,95020.80
2019-03-05T17:43:24.020Z,95017.47
2019-03-05T17:45:54.060Z,95029.36
2019-03-05T17:48:24.116Z,95042.61
2019-03-05T17:50:54.323Z,95035.47
2019-03-05T17:53:24.538Z,95033.16
2019-03-05T17:55:54.557Z,95040.48
2019-03-05T17:58:24.767Z,95041.63
2019-03-05T18:00:55.089Z,95037.92
2019-03-05T18:03:25.241Z,95036.83
2019-03-05T18:05:55.833Z,95041.05
2019-03-05T18:08:26.050Z,95033.95
2019-03-05T18:10:56.185Z,95036.39
2019-03-05T18:13:26.308Z,95039.66
2019-03-05T18:15:56.505Z,95045.77
2019-03-05T18:18:26.725Z,95054.71
2019-03-05T18:20:56.680Z,95058.01
2019-03-05T18:23:26.983Z,95065.90
2019-03-05T18:25:57.343Z,95062.34
2019-03-05T18:28:27.923Z,95058.45
2019-03-05T18:30:58.149Z,95063.14
2019-03-05T18:33:28.304Z,95062.81
2019-03-05T18:35:58.496Z,95072.52
2019-03-05T18:38:28.774Z,95074.61
2019-03-05T18:40:58.998Z,95086.33
2019-03-05T18:43:29.240Z,95087.56
2019-03-05T18:45:59.368Z,95084.56
2019-03-05T18:48:29.523Z,95094.36
2019-03-05T18:51:00.117Z,95105.77
2019-03-05T18:53:30.400Z,95107.54
2019-03-05T18:56:00.553Z,95109.98
2019-03-05T18:58:30.499Z,95114.55
2019-03-05T19:01:00.729Z,95104.44
2019-03-05T19:03:32.061Z,95098.48
2019-03-05T19:06:02.349Z,95107.98
2019-03-05T19:08:32.277Z,95109.76
2019-03-05T19:11:02.885Z,95107.55
2019-03-05T19:13:33.334Z,95122.07
2019-03-05T19:16:04.194Z,95120.28
2019-03-05T19:18:34.501Z,95111.93
2019-03-05T19:21:05.004Z,95114.78
2019-03-05T19:23:35.461Z,95119.47
2019-03-05T19:26:06.791Z,95131.39
2019-03-05T19:28:37.005Z,95135.05
2019-03-05T19:31:07.296Z,95134.86
2019-03-05T19:33:37.480Z,95125.14
2019-03-05T19:36:07.889Z,95125.09
2019-03-05T19:38:38.113Z,95126.98
2019-03-05T19:41:08.383Z,95130.14
2019-03-05T19:43:38.533Z,95132.42
2019-03-05T19:46:08.750Z,95134.73
2019-03-05T19:48:38.977Z,95146.48
2019-03-05T19:51:09.093Z,95156.19
2019-03-05T19:53:39.349Z,95159.72
2019-03-05T19:56:09.584Z,95156.56
2019-03-05T19:58:39.932Z,95165.31
2019-03-05T20:01:15.957Z,95171.92
2019-03-05T20:03:46.273Z,95176.59
2019-03-05T20:06:18.223Z,95183.44
2019-03-05T20:08:48.452Z,95179.62
2019-03-05T20:11:18.688Z,95182.53
2019-03-05T20:13:48.935Z,95182.96
2019-03-05T20:16:20.424Z,95187.25
2019-03-05T20:18:50.609Z,95184.20
2019-03-05T20:21:20.830Z,95185.07
2019-03-05T20:23:51.046Z,95190.09
2019-03-05T20:26:21.344Z,95189.78
2019-03-05T20:28:52.649Z,95191.34
2019-03-05T20:31:23.052Z,95195.64
2019-03-05T20:33:53.370Z,95197.87
2019-03-05T20:36:23.407Z,95196.43
2019-03-05T20:38:53.640Z,95192.87
2019-03-05T20:41:23.661Z,95199.90
2019-03-05T20:43:53.701Z,95196.93
2019-03-05T20:46:26.866Z,95197.96
2019-03-05T20:48:57.098Z,95190.73
2019-03-05T20:51:27.238Z,95190.02
2019-03-05T20:53:57.900Z,95197.74
2019-03-05T20:56:28.128Z,95188.95
2019-03-05T20:58:58.347Z,95186.06
2019-03-05T21:01:28.570Z,95189.22
2019-03-05T21:03:58.638Z,95191.42
2019-03-05T21:06:28.885Z,95191.45
2019-03-05T21:08:59.104Z,95191.36
2019-03-05T21:11:29.152Z,95194.33
2019-03-05T21:13:59.307Z,95192.30
2019-03-05T21:16:29.514Z,95196.09
2019-03-05T21:18:59.467Z,95199.06
2019-03-05T21:21:30.122Z,95195.28
2019-03-05T21:24:00.341Z,95195.34
2019-03-05T21:26:30.744Z,95201.45
2019-03-05T21:29:00.882Z,95202.06
2019-03-05T21:31:31.103Z,95199.73
2019-03-05T21:34:01.448Z,95209.69
2019-03-05T21:36:31.571Z,95203.91
2019-03-05T21:39:01.778Z,95201.44
2019-03-05T21:41:31.986Z,95204.58
2019-03-05T21:44:02.177Z,95194.31
2019-03-05T21:46:32.100Z,95194.88
2019-03-05T21:49:02.024Z,95192.84
2019-03-05T21:51:32.237Z,95195.73
2019-03-05T21:54:02.443Z,95195.59
2019-03-05T21:56:32.571Z,95190.27
2019-03-05T21:59:02.771Z,95207.97
2019-03-05T22:01:33.369Z,95213.42
2019-03-05T22:04:03.413Z,95206.47
2019-03-05T22:06:33.634Z,95208.95
2019-03-05T22:09:04.816Z,95216.05
2019-03-05T22:11:34.928Z,95212.34
2019-03-05T22:14:05.038Z,95220.98
2019-03-05T22:16:35.241Z,95225.62
2019-03-05T22:19:05.456Z,95231.05
2019-03-05T22:21:35.470Z,95229.69
2019-03-05T22:24:06.074Z,95228.76
2019-03-05T22:26:36.496Z,95242.42
2019-03-05T22:29:07.282Z,95241.11
2019-03-05T22:31:37.203Z,95245.34
2019-03-05T22:34:07.373Z,95246.28
2019-03-05T22:36:37.585Z,95257.00
2019-03-05T22:39:08.890Z,95259.38
2019-03-05T22:41:39.607Z,95258.95
2019-03-05T22:44:09.638Z,95267.44
2019-03-05T22:46:40.229Z,95266.94
2019-03-05T22:49:10.437Z,95274.24
2019-03-05T22:51:40.356Z,95271.39
2019-03-05T22:54:10.282Z,95269.02
2019-03-05T22:56:40.503Z,95274.48
2019-03-05T22:59:10.776Z,95281.81
2019-03-05T23:01:43.424Z,95282.30
2019-03-05T23:04:16.118Z,95286.74
2019-03-05T23:06:46.340Z,95290.08
2019-03-05T23:09:26.945Z,95297.19
2019-03-05T23:11:57.351Z,95297.64
2019-03-05T23:14:27.471Z,95294.07
2019-03-05T23:16:57.661Z,95289.24
2019-03-05T23:19:28.523Z,95289.48
2019-03-05T23:21:58.839Z,95300.98
2019-03-05T23:24:29.031Z,95301.41
2019-03-05T23:26:59.141Z,95296.20
2019-03-05T23:29:42.942Z,95303.16
2019-03-05T23:32:13.786Z,95295.91
2019-03-05T23:34:43.990Z,95297.53
2019-03-05T23:37:14.102Z,95289.50
2019-03-05T23:39:44.460Z,95293.35
2019-03-05T23:42:14.669Z,95298.64
2019-03-05T23:44:44.850Z,95293.21
2019-03-05T23:47:14.975Z,95302.56
2019-03-05T23:49:44.980Z,95289.97
2019-03-05T23:52:15.195Z,95300.07
2019-03-05T23:54:45.394Z,95299.83
2019-03-05T23:57:15.416Z,95299.38
2019-03-05T23:59:45.605Z,95311.90
